createdAt,value
2017-08-03T00:00:11.317Z,86.80
2017-08-03T00:02:39.529Z,86.90
2017-08-03T00:05:07.024Z,86.80
2017-08-03T00:07:34.491Z,86.70
2017-08-03T00:10:02.043Z,86.80
2017-08-03T00:12:29.480Z,86.70
2017-08-03T00:14:56.961Z,86.80
2017-08-03T00:17:25.180Z,87.10
2017-08-03T00:19:52.639Z,86.70
2017-08-03T00:22:20.124Z,86.90
2017-08-03T00:24:47.579Z,87.10
2017-08-03T00:27:15.022Z,87.30
2017-08-03T00:29:42.500Z,87.30
2017-08-03T00:32:09.958Z,87.50
2017-08-03T00:34:37.435Z,87.60
2017-08-03T00:37:05.653Z,87.90
2017-08-03T00:39:33.236Z,87.50
2017-08-03T00:42:00.796Z,87.70
2017-08-03T00:47:02.243Z,87.90
2017-08-03T00:49:29.695Z,88.10
2017-08-03T00:51:57.144Z,88.00
2017-08-03T00:54:24.639Z,87.70
2017-08-03T00:56:52.091Z,87.60
2017-08-03T00:59:19.568Z,87.80
2017-08-03T01:01:47.820Z,87.90
2017-08-03T01:04:15.287Z,87.50
2017-08-03T01:06:42.779Z,87.30
2017-08-03T01:09:10.236Z,87.10
2017-08-03T01:11:37.772Z,86.80
2017-08-03T01:14:05.979Z,87.20
2017-08-03T01:16:33.435Z,87.20
2017-08-03T01:19:00.912Z,87.20
2017-08-03T01:21:28.357Z,87.10
2017-08-03T01:23:55.856Z,87.00
2017-08-03T01:26:23.400Z,86.90
2017-08-03T01:28:50.863Z,87.10
2017-08-03T01:31:18.409Z,87.10
2017-08-03T01:33:45.856Z,87.00
2017-08-03T01:36:13.309Z,87.10
2017-08-03T01:38:40.828Z,87.10
2017-08-03T01:41:09.028Z,87.10
2017-08-03T01:43:36.499Z,86.90
2017-08-03T01:46:03.943Z,87.00
2017-08-03T01:48:31.391Z,86.90
2017-08-03T01:50:58.866Z,86.80
2017-08-03T01:53:26.340Z,87.80
2017-08-03T01:55:53.900Z,87.20
2017-08-03T01:58:21.362Z,87.20
2017-08-03T02:00:48.803Z,87.40
2017-08-03T02:03:16.276Z,87.40
2017-08-03T02:05:43.723Z,87.50
2017-08-03T02:08:11.176Z,87.50
2017-08-03T02:10:38.658Z,87.60
2017-08-03T02:13:06.904Z,87.70
2017-08-03T02:15:34.356Z,87.60
2017-08-03T02:18:01.952Z,87.60
2017-08-03T02:20:30.196Z,87.40
2017-08-03T02:22:57.771Z,87.40
2017-08-03T02:25:25.228Z,87.40
2017-08-03T02:27:52.782Z,87.20
2017-08-03T02:30:20.326Z,87.00
2017-08-03T02:32:47.803Z,87.10
2017-08-03T02:35:15.284Z,87.00
2017-08-03T02:37:43.510Z,87.10
2017-08-03T02:40:10.999Z,87.00
2017-08-03T02:42:39.261Z,86.60
2017-08-03T02:45:06.713Z,86.40
2017-08-03T02:47:34.256Z,86.40
2017-08-03T02:50:01.708Z,86.40
2017-08-03T02:52:29.148Z,86.10
2017-08-03T02:54:56.626Z,85.90
2017-08-03T02:57:24.083Z,86.00
2017-08-03T02:59:51.580Z,85.70
2017-08-03T03:02:19.789Z,85.80
2017-08-03T03:04:47.234Z,85.80
2017-08-03T03:07:14.704Z,86.00
2017-08-03T03:09:42.159Z,86.20
2017-08-03T03:12:09.634Z,86.30
2017-08-03T03:14:37.089Z,86.60
2017-08-03T03:17:04.555Z,86.90
2017-08-03T03:19:32.120Z,87.20
2017-08-03T03:21:59.684Z,87.30
2017-08-03T03:24:27.139Z,87.30
2017-08-03T03:26:54.693Z,87.40
2017-08-03T03:29:22.147Z,87.30
2017-08-03T03:31:49.595Z,87.40
2017-08-03T03:34:17.079Z,87.30
2017-08-03T03:36:45.335Z,87.10
2017-08-03T03:39:12.787Z,87.00
2017-08-03T03:41:40.251Z,86.80
2017-08-03T03:44:07.699Z,86.90
2017-08-03T03:46:35.263Z,86.80
2017-08-03T03:49:02.740Z,86.90
2017-08-03T03:51:30.952Z,86.70
2017-08-03T03:53:58.424Z,86.70
2017-08-03T03:56:25.889Z,86.80
2017-08-03T03:58:53.331Z,86.80
2017-08-03T04:01:20.808Z,87.10
2017-08-03T04:03:48.251Z,87.70
2017-08-03T04:06:15.720Z,87.90
2017-08-03T04:08:43.287Z,88.40
2017-08-03T04:11:10.731Z,88.70
2017-08-03T04:13:38.187Z,88.70
2017-08-03T04:16:05.791Z,88.70
2017-08-03T04:18:34.027Z,89.00
2017-08-03T04:21:01.476Z,88.20
2017-08-03T04:23:28.958Z,88.20
2017-08-03T04:25:56.399Z,88.00
2017-08-03T04:28:23.879Z,87.70
2017-08-03T04:30:52.096Z,87.20
2017-08-03T04:33:19.584Z,87.20
2017-08-03T04:35:47.056Z,86.90
2017-08-03T04:38:14.517Z,86.60
2017-08-03T04:40:41.967Z,86.30
2017-08-03T04:43:09.440Z,86.00
2017-08-03T04:45:37.660Z,86.20
2017-08-03T04:48:05.135Z,86.20
2017-08-03T04:50:32.586Z,86.00
2017-08-03T04:53:00.032Z,85.90
2017-08-03T04:55:27.530Z,86.20
2017-08-03T04:57:55.743Z,84.90
2017-08-03T05:00:23.230Z,85.60
2017-08-03T05:02:50.711Z,85.60
2017-08-03T05:05:18.160Z,85.80
2017-08-03T05:07:45.680Z,86.00
2017-08-03T05:10:13.155Z,86.10
2017-08-03T05:12:40.686Z,86.10
2017-08-03T05:15:08.119Z,86.10
2017-08-03T05:17:36.366Z,85.80
2017-08-03T05:20:03.854Z,85.70
2017-08-03T05:22:31.300Z,85.70
2017-08-03T05:24:59.547Z,85.70
2017-08-03T05:27:27.104Z,85.60
2017-08-03T05:29:54.676Z,86.30
2017-08-03T05:32:22.947Z,86.40
2017-08-03T05:34:50.398Z,86.00
2017-08-03T05:37:17.859Z,86.10
2017-08-03T05:39:45.348Z,86.10
2017-08-03T05:42:12.839Z,86.10
2017-08-03T05:44:40.293Z,86.60
2017-08-03T05:47:07.766Z,86.00
2017-08-03T05:49:35.203Z,85.90
2017-08-03T05:52:02.748Z,85.60
2017-08-03T05:54:30.216Z,86.20
2017-08-03T05:56:57.700Z,85.20
2017-08-03T05:59:25.271Z,85.20
2017-08-03T06:01:52.823Z,85.40
2017-08-03T06:04:20.280Z,85.30
2017-08-03T06:06:47.753Z,85.30
2017-08-03T06:09:15.976Z,85.30
2017-08-03T06:11:43.432Z,85.20
2017-08-03T06:14:10.891Z,85.20
2017-08-03T06:16:38.363Z,85.70
2017-08-03T06:19:05.875Z,85.90
2017-08-03T06:21:33.330Z,85.80
2017-08-03T06:24:00.800Z,85.90
2017-08-03T06:26:28.264Z,86.10
2017-08-03T06:28:55.724Z,85.70
2017-08-03T06:31:23.220Z,86.90
2017-08-03T06:33:50.667Z,86.90
2017-08-03T06:36:18.107Z,87.00
2017-08-03T06:38:45.596Z,86.90
2017-08-03T06:41:13.040Z,87.40
2017-08-03T06:43:40.517Z,87.70
2017-08-03T06:46:07.959Z,88.90
2017-08-03T06:48:35.415Z,89.30
2017-08-03T06:51:02.880Z,89.20
2017-08-03T06:53:31.120Z,89.40
2017-08-03T06:55:58.611Z,89.30
2017-08-03T06:58:26.199Z,90.00
2017-08-03T07:00:53.660Z,89.90
2017-08-03T07:03:21.145Z,90.00
2017-08-03T07:05:48.587Z,90.10
2017-08-03T07:08:16.088Z,90.10
2017-08-03T07:10:43.552Z,90.10
2017-08-03T07:13:11.790Z,90.50
2017-08-03T07:15:39.267Z,90.50
2017-08-03T07:18:06.714Z,90.60
2017-08-03T07:20:34.579Z,91.20
2017-08-03T07:23:02.072Z,91.70
2017-08-03T07:25:30.308Z,91.80
2017-08-03T07:27:57.775Z,91.70
2017-08-03T07:30:25.251Z,91.30
2017-08-03T07:32:52.786Z,91.00
2017-08-03T07:35:20.282Z,91.60
2017-08-03T07:37:47.744Z,92.10
2017-08-03T07:40:15.202Z,92.40
2017-08-03T07:42:42.679Z,92.60
2017-08-03T07:45:10.163Z,92.80
2017-08-03T07:47:37.728Z,92.90
2017-08-03T07:50:05.184Z,92.50
2017-08-03T07:52:32.677Z,92.10
2017-08-03T07:55:01.034Z,92.00
2017-08-03T07:57:29.251Z,92.30
2017-08-03T07:59:56.758Z,92.20
2017-08-03T08:02:24.300Z,92.50
2017-08-03T08:04:51.752Z,92.40
2017-08-03T08:07:19.289Z,92.70
2017-08-03T08:09:46.733Z,92.80
2017-08-03T08:12:14.192Z,93.00
2017-08-03T08:14:41.687Z,92.90
2017-08-03T08:17:09.142Z,92.70
2017-08-03T08:19:36.596Z,93.00
2017-08-03T08:22:04.100Z,92.90
2017-08-03T08:24:31.548Z,93.10
2017-08-03T08:26:59.799Z,92.50
2017-08-03T08:29:27.268Z,92.50
2017-08-03T08:31:55.481Z,93.10
2017-08-03T08:34:22.927Z,93.00
2017-08-03T08:36:50.397Z,92.70
2017-08-03T08:39:17.847Z,92.80
2017-08-03T08:41:45.322Z,92.90
2017-08-03T08:44:12.802Z,92.70
2017-08-03T08:46:40.265Z,92.10
2017-08-03T08:49:07.732Z,91.90
2017-08-03T08:51:35.947Z,92.20
2017-08-03T08:54:03.431Z,92.10
2017-08-03T08:56:31.013Z,92.30
2017-08-03T08:58:58.471Z,92.50
2017-08-03T09:01:25.941Z,92.30
2017-08-03T09:03:53.408Z,92.20
2017-08-03T09:06:21.644Z,92.20
2017-08-03T09:08:49.172Z,92.20
2017-08-03T09:11:16.623Z,92.30
2017-08-03T09:13:44.077Z,92.50
2017-08-03T09:16:11.592Z,92.30
2017-08-03T09:18:39.801Z,91.20
2017-08-03T09:21:07.325Z,91.10
2017-08-03T09:23:35.581Z,90.70
2017-08-03T09:26:03.024Z,90.30
2017-08-03T09:28:30.521Z,90.30
2017-08-03T09:30:58.731Z,89.40
2017-08-03T09:33:26.229Z,89.20
2017-08-03T09:35:53.776Z,88.70
2017-08-03T09:38:21.245Z,88.50
2017-08-03T09:40:48.784Z,86.90
2017-08-03T09:43:16.282Z,86.70
2017-08-03T09:45:44.496Z,84.70
2017-08-03T09:48:11.960Z,84.50
2017-08-03T09:50:39.456Z,83.40
2017-08-03T09:53:06.899Z,83.90
2017-08-03T09:55:34.372Z,81.70
2017-08-03T09:58:02.595Z,79.40
2017-08-03T10:00:30.044Z,79.40
2017-08-03T10:02:57.542Z,79.00
2017-08-03T10:05:25.013Z,78.20
2017-08-03T10:07:53.280Z,77.50
2017-08-03T10:10:20.739Z,77.40
2017-08-03T10:12:48.192Z,77.60
2017-08-03T10:15:15.680Z,79.30
2017-08-03T10:17:43.895Z,77.40
2017-08-03T10:20:11.334Z,77.30
2017-08-03T10:22:38.798Z,75.50
2017-08-03T10:25:06.249Z,75.40
2017-08-03T10:27:33.720Z,75.30
2017-08-03T10:30:01.163Z,76.10
2017-08-03T10:32:28.789Z,75.30
2017-08-03T10:34:56.237Z,75.90
2017-08-03T10:37:24.456Z,73.80
2017-08-03T10:39:51.944Z,73.70
2017-08-03T10:42:19.396Z,74.50
2017-08-03T10:44:46.839Z,74.70
2017-08-03T10:47:14.319Z,75.50
2017-08-03T10:49:41.807Z,74.60
2017-08-03T10:52:10.047Z,74.20
2017-08-03T10:54:37.515Z,74.10
2017-08-03T10:57:05.746Z,74.90
2017-08-03T10:59:33.234Z,74.60
2017-08-03T11:02:00.697Z,73.60
2017-08-03T11:04:28.940Z,72.80
2017-08-03T11:06:56.437Z,72.80
2017-08-03T11:09:24.681Z,72.70
2017-08-03T11:11:52.120Z,72.60
2017-08-03T11:14:19.601Z,72.00
2017-08-03T11:16:47.079Z,71.90
2017-08-03T11:19:14.532Z,70.30
2017-08-03T11:21:42.020Z,70.10
2017-08-03T11:24:09.523Z,70.00
2017-08-03T11:26:36.983Z,68.20
2017-08-03T11:29:04.544Z,69.30
2017-08-03T11:31:31.993Z,68.40
2017-08-03T11:33:59.456Z,68.70
2017-08-03T11:36:26.928Z,68.90
2017-08-03T11:38:55.189Z,66.60
2017-08-03T11:41:22.653Z,66.00
2017-08-03T11:43:50.884Z,62.70
2017-08-03T11:46:18.340Z,62.70
2017-08-03T11:48:45.800Z,63.30
2017-08-03T11:51:13.259Z,63.00
2017-08-03T11:53:40.742Z,64.30
2017-08-03T11:56:08.170Z,61.60
2017-08-03T11:58:35.645Z,62.20
2017-08-03T12:01:03.088Z,62.60
2017-08-03T12:03:30.535Z,62.30
2017-08-03T12:05:58.017Z,63.10
2017-08-03T12:08:25.748Z,62.80
2017-08-03T12:10:53.188Z,61.90
2017-08-03T12:13:20.660Z,61.30
2017-08-03T12:15:48.107Z,61.00
2017-08-03T12:18:15.584Z,61.20
2017-08-03T12:20:43.032Z,60.90
2017-08-03T12:23:10.512Z,61.10
2017-08-03T12:25:38.074Z,60.20
2017-08-03T12:28:05.539Z,59.80
2017-08-03T12:30:32.960Z,59.80
2017-08-03T12:33:00.451Z,60.60
2017-08-03T12:35:28.000Z,61.80
2017-08-03T12:37:55.459Z,62.30
2017-08-03T12:40:23.038Z,61.30
2017-08-03T12:42:51.280Z,64.80
2017-08-03T12:45:18.723Z,64.80
2017-08-03T12:47:46.196Z,66.20
2017-08-03T12:50:13.660Z,66.60
2017-08-03T12:52:41.119Z,66.90
2017-08-03T12:55:08.608Z,67.10
2017-08-03T12:57:36.143Z,67.20
2017-08-03T13:00:03.707Z,67.50
2017-08-03T13:02:31.968Z,68.30
2017-08-03T13:04:59.427Z,68.30
2017-08-03T13:07:26.971Z,68.90
2017-08-03T13:09:54.420Z,68.70
2017-08-03T13:12:21.875Z,68.60
2017-08-03T13:14:49.401Z,68.50
2017-08-03T13:17:16.935Z,67.80
2017-08-03T13:19:44.364Z,66.50
2017-08-03T13:22:11.843Z,64.90
2017-08-03T13:24:40.060Z,64.40
2017-08-03T13:27:07.547Z,64.20
2017-08-03T13:29:35.017Z,63.50
2017-08-03T13:32:02.464Z,61.00
2017-08-03T13:34:29.935Z,59.90
2017-08-03T13:36:58.149Z,59.90
2017-08-03T13:39:25.646Z,59.10
2017-08-03T13:41:53.111Z,59.00
2017-08-03T13:44:20.567Z,57.60
2017-08-03T13:46:48.104Z,57.40
2017-08-03T13:49:15.559Z,57.40
2017-08-03T13:51:43.028Z,57.00
2017-08-03T13:54:10.525Z,56.90
2017-08-03T13:56:38.791Z,59.00
2017-08-03T13:59:07.096Z,59.10
2017-08-03T14:01:34.528Z,59.00
2017-08-03T14:04:02.067Z,59.70
2017-08-03T14:06:29.511Z,59.20
2017-08-03T14:08:57.073Z,59.40
2017-08-03T14:11:24.565Z,59.20
2017-08-03T14:13:52.020Z,59.80
2017-08-03T14:16:19.491Z,59.40
2017-08-03T14:18:47.067Z,58.90
2017-08-03T14:21:14.511Z,60.20
2017-08-03T14:23:42.144Z,60.40
2017-08-03T14:26:10.372Z,61.10
2017-08-03T14:28:37.828Z,61.10
2017-08-03T14:31:05.348Z,60.90
2017-08-03T14:33:32.798Z,60.00
2017-08-03T14:36:00.283Z,59.70
2017-08-03T14:38:27.732Z,60.70
2017-08-03T14:40:55.203Z,60.90
2017-08-03T14:43:22.672Z,61.40
2017-08-03T14:45:50.122Z,62.00
2017-08-03T14:48:17.563Z,61.10
2017-08-03T14:50:45.139Z,60.50
2017-08-03T14:53:12.600Z,61.00
2017-08-03T14:55:40.160Z,61.20
2017-08-03T14:58:07.608Z,61.20
2017-08-03T15:00:35.057Z,62.50
2017-08-03T15:03:02.580Z,64.90
2017-08-03T15:05:30.021Z,67.70
2017-08-03T15:07:57.472Z,69.60
2017-08-03T15:10:25.717Z,72.60
2017-08-03T15:12:53.156Z,72.70
2017-08-03T15:15:20.601Z,72.50
2017-08-03T15:17:48.107Z,73.30
2017-08-03T15:20:16.334Z,74.40
2017-08-03T15:22:43.855Z,73.60
2017-08-03T15:25:12.079Z,71.50
2017-08-03T15:27:39.643Z,71.40
2017-08-03T15:30:07.120Z,70.10
2017-08-03T15:32:34.566Z,69.50
2017-08-03T15:35:02.008Z,69.00
2017-08-03T15:37:29.476Z,68.80
2017-08-03T15:39:56.933Z,68.70
2017-08-03T15:42:24.399Z,68.50
2017-08-03T15:44:51.857Z,69.10
2017-08-03T15:47:19.303Z,68.40
2017-08-03T15:49:46.803Z,65.70
2017-08-03T15:52:14.257Z,65.30
2017-08-03T15:54:41.769Z,65.50
2017-08-03T15:57:09.240Z,65.20
2017-08-03T15:59:36.690Z,64.30
2017-08-03T16:02:04.165Z,59.20
2017-08-03T16:04:32.443Z,59.40
2017-08-03T16:06:59.875Z,59.30
2017-08-03T16:09:27.350Z,59.10
2017-08-03T16:11:55.576Z,59.10
2017-08-03T16:14:23.044Z,58.90
2017-08-03T16:16:50.505Z,58.60
2017-08-03T16:19:18.000Z,58.10
2017-08-03T16:21:46.255Z,57.60
2017-08-03T16:24:13.703Z,57.60
2017-08-03T16:26:41.188Z,57.60
2017-08-03T16:29:09.436Z,57.50
2017-08-03T16:31:36.882Z,57.50
2017-08-03T16:34:04.377Z,57.40
2017-08-03T16:36:32.592Z,57.30
2017-08-03T16:39:00.041Z,57.30
2017-08-03T16:41:27.508Z,57.30
2017-08-03T16:43:54.971Z,57.60
2017-08-03T16:46:22.424Z,56.90
2017-08-03T16:48:49.899Z,56.70
2017-08-03T16:51:17.355Z,56.20
2017-08-03T16:53:44.919Z,54.40
2017-08-03T16:56:12.365Z,54.00
2017-08-03T16:58:39.829Z,53.50
2017-08-03T17:01:07.276Z,53.40
2017-08-03T17:03:34.728Z,53.40
2017-08-03T17:06:02.233Z,52.70
2017-08-03T17:08:30.454Z,52.40
2017-08-03T17:10:57.891Z,52.30
2017-08-03T17:13:25.359Z,52.30
2017-08-03T17:15:52.808Z,51.60
2017-08-03T17:18:20.300Z,52.00
2017-08-03T17:20:47.748Z,52.40
2017-08-03T17:23:15.205Z,52.50
2017-08-03T17:25:42.684Z,52.40
2017-08-03T17:28:10.213Z,52.30
2017-08-03T17:30:37.668Z,52.70
2017-08-03T17:33:05.136Z,51.40
2017-08-03T17:35:32.579Z,51.50
2017-08-03T17:38:00.117Z,51.50
2017-08-03T17:40:27.667Z,51.60
2017-08-03T17:42:55.104Z,52.10
2017-08-03T17:45:22.612Z,52.10
2017-08-03T17:47:50.074Z,52.40
2017-08-03T17:50:17.548Z,52.70
2017-08-03T17:52:45.825Z,53.80
2017-08-03T17:55:13.313Z,53.30
2017-08-03T17:57:40.787Z,53.40
2017-08-03T18:00:08.247Z,53.30
2017-08-03T18:02:35.729Z,53.40
2017-08-03T18:05:03.196Z,53.80
2017-08-03T18:07:30.654Z,53.60
2017-08-03T18:09:58.132Z,53.40
2017-08-03T18:12:25.593Z,53.60
2017-08-03T18:14:53.052Z,53.50
2017-08-03T18:17:20.572Z,53.70
2017-08-03T18:19:48.052Z,54.10
2017-08-03T18:22:16.294Z,54.10
2017-08-03T18:24:43.743Z,54.00
2017-08-03T18:27:11.247Z,54.30
2017-08-03T18:29:38.708Z,54.30
2017-08-03T18:32:06.161Z,54.60
2017-08-03T18:34:34.423Z,54.50
2017-08-03T18:37:01.872Z,54.40
2017-08-03T18:39:29.296Z,54.50
2017-08-03T18:41:56.779Z,54.60
2017-08-03T18:44:24.233Z,55.10
2017-08-03T18:46:51.713Z,55.20
2017-08-03T18:49:19.964Z,55.70
2017-08-03T18:51:47.458Z,55.70
2017-08-03T18:54:14.925Z,56.20
2017-08-03T18:56:42.427Z,56.20
2017-08-03T18:59:09.899Z,56.30
2017-08-03T19:01:38.133Z,56.80
2017-08-03T19:04:06.438Z,56.30
2017-08-03T19:06:33.977Z,56.60
2017-08-03T19:09:01.428Z,57.00
2017-08-03T19:11:29.004Z,56.70
2017-08-03T19:13:56.451Z,57.10
2017-08-03T19:16:24.027Z,57.30
2017-08-03T19:18:51.521Z,58.80
2017-08-03T19:21:19.035Z,59.20
2017-08-03T19:23:46.502Z,59.70
2017-08-03T19:26:13.976Z,59.70
2017-08-03T19:28:42.204Z,59.70
2017-08-03T19:31:09.690Z,59.60
2017-08-03T19:33:37.235Z,60.10
2017-08-03T19:36:04.728Z,60.60
2017-08-03T19:38:32.200Z,62.60
2017-08-03T19:40:59.667Z,63.80
2017-08-03T19:43:27.123Z,63.60
2017-08-03T19:45:54.583Z,62.80
2017-08-03T19:48:22.077Z,63.10
2017-08-03T19:50:49.579Z,63.10
2017-08-03T19:53:17.039Z,64.40
2017-08-03T19:55:44.518Z,64.50
2017-08-03T19:58:11.977Z,64.40
2017-08-03T20:00:39.449Z,64.50
2017-08-03T20:03:06.891Z,65.10
2017-08-03T20:05:35.188Z,65.30
2017-08-03T20:08:02.717Z,65.70
2017-08-03T20:10:30.152Z,65.90
2017-08-03T20:13:01.305Z,66.20
2017-08-03T20:15:28.832Z,66.50
2017-08-03T20:17:57.042Z,66.70
2017-08-03T20:20:24.492Z,66.70
2017-08-03T20:22:51.996Z,66.60
2017-08-03T20:25:19.447Z,66.40
2017-08-03T20:27:46.900Z,66.60
2017-08-03T20:30:14.372Z,67.00
2017-08-03T20:32:42.601Z,67.90
2017-08-03T20:35:10.101Z,67.80
2017-08-03T20:37:37.652Z,68.10
2017-08-03T20:40:05.112Z,68.70
2017-08-03T20:42:32.592Z,69.50
2017-08-03T20:45:00.051Z,69.60
2017-08-03T20:47:27.502Z,70.10
2017-08-03T20:49:55.781Z,70.70
2017-08-03T20:52:24.024Z,70.90
2017-08-03T20:54:51.468Z,70.90
2017-08-03T20:57:18.932Z,71.10
2017-08-03T20:59:46.469Z,71.30
2017-08-03T21:02:13.944Z,71.80
2017-08-03T21:04:41.400Z,71.50
2017-08-03T21:07:08.852Z,71.50
2017-08-03T21:09:36.447Z,72.60
2017-08-03T21:12:04.658Z,72.40
2017-08-03T21:14:32.136Z,72.30
2017-08-03T21:16:59.617Z,72.20
2017-08-03T21:19:27.058Z,72.60
2017-08-03T21:21:54.562Z,72.60
2017-08-03T21:24:22.038Z,73.40
2017-08-03T21:26:49.628Z,73.20
2017-08-03T21:29:17.103Z,73.40
2017-08-03T21:31:45.374Z,73.60
2017-08-03T21:34:12.824Z,73.50
2017-08-03T21:36:40.324Z,73.20
2017-08-03T21:39:07.765Z,73.80
2017-08-03T21:41:35.235Z,72.30
2017-08-03T21:44:02.702Z,71.10
2017-08-03T21:46:30.164Z,70.20
2017-08-03T21:48:57.659Z,69.40
2017-08-03T21:51:25.207Z,69.10
2017-08-03T21:53:52.681Z,68.90
2017-08-03T21:56:20.244Z,68.50
2017-08-03T21:58:47.718Z,68.50
2017-08-03T22:01:15.967Z,68.40
2017-08-03T22:03:43.403Z,68.40
2017-08-03T22:06:10.863Z,68.40
2017-08-03T22:08:38.344Z,68.60
2017-08-03T22:11:05.784Z,68.70
2017-08-03T22:13:33.236Z,69.10
2017-08-03T22:16:00.695Z,69.10
2017-08-03T22:18:28.140Z,68.60
2017-08-03T22:20:56.631Z,68.90
2017-08-03T22:23:24.077Z,69.50
2017-08-03T22:25:51.650Z,70.40
2017-08-03T22:28:19.128Z,70.50
2017-08-03T22:30:47.345Z,70.10
2017-08-03T22:33:14.827Z,70.00
2017-08-03T22:35:42.264Z,70.00
2017-08-03T22:38:09.712Z,70.10
2017-08-03T22:40:37.212Z,70.60
2017-08-03T22:43:04.771Z,70.50
2017-08-03T22:45:33.001Z,71.80
2017-08-03T22:48:00.489Z,72.60
2017-08-03T22:50:27.945Z,72.40
2017-08-03T22:52:55.402Z,72.70
2017-08-03T22:55:22.867Z,73.00
2017-08-03T22:57:50.320Z,73.30
2017-08-03T23:00:17.796Z,73.60
2017-08-03T23:02:45.269Z,73.90
2017-08-03T23:05:13.482Z,72.70
2017-08-03T23:07:40.944Z,72.70
2017-08-03T23:10:08.423Z,72.50
2017-08-03T23:12:35.871Z,73.00
2017-08-03T23:15:03.396Z,73.40
2017-08-03T23:17:30.828Z,73.40
2017-08-03T23:19:58.343Z,73.60
2017-08-03T23:22:25.818Z,74.50
2017-08-03T23:24:54.072Z,74.40
2017-08-03T23:27:21.534Z,74.40
2017-08-03T23:29:49.051Z,74.30
2017-08-03T23:32:16.526Z,74.50
2017-08-03T23:34:44.013Z,74.20
2017-08-03T23:37:11.559Z,74.20
2017-08-03T23:39:39.011Z,74.00
2017-08-03T23:42:06.473Z,73.50
2017-08-03T23:44:33.919Z,73.80
2017-08-03T23:47:01.387Z,75.30
2017-08-03T23:49:28.951Z,74.90
2017-08-03T23:51:56.391Z,75.20
2017-08-03T23:54:23.945Z,75.40
2017-08-03T23:56:51.404Z,75.50
2017-08-03T23:59:18.835Z,75.20
